PGT83BX LTFJ-LWSK
Flight info
| Callsign | PGT83BX |
|---|---|
| Flight time | 1h 5m |
| Altitude | 36000 |
| Route | LTFJ/24R BARP1M BARPE UG12 GOLDO DCT ALX UM603 PEREN UN128 RUGAS RUGA2B LWSK/34 |
| Aircraft | A320/M-SDE3FGHIRWY/LB1 |
Departure
| Time | 2026-04-24 12:37 |
|---|---|
| Airport | Istanbul Sabiha Gökçen International Airport (LTFJ) |
Arrival
| Time | 2026-04-24 13:42 |
|---|---|
| Airport | Skopje International Airport (LWSK) |
| Time | Latitude | Longitude | Altitude | Speed | Heading |
|---|---|---|---|---|---|
| 2026-04-24 11:58 | 40.90542 | 29.31386 | 321 ft | 0 kts | 334° |
| 2026-04-24 12:25 | 40.90526 | 29.31396 | 321 ft | 4 kts | 336° |
| 2026-04-24 12:25 | 40.90501 | 29.31410 | 321 ft | 4 kts | 340° |
| 2026-04-24 12:25 | 40.90475 | 29.31421 | 321 ft | 4 kts | 349° |
| 2026-04-24 12:26 | 40.90449 | 29.31423 | 321 ft | 4 kts | 22° |
| 2026-04-24 12:26 | 40.90438 | 29.31414 | 321 ft | 0 kts | 64° |
| 2026-04-24 12:30 | 40.90441 | 29.31420 | 321 ft | 1 kts | 64° |
| 2026-04-24 12:31 | 40.90454 | 29.31456 | 319 ft | 10 kts | 64° |
| 2026-04-24 12:31 | 40.90499 | 29.31580 | 321 ft | 18 kts | 64° |
| 2026-04-24 12:31 | 40.90553 | 29.31723 | 320 ft | 17 kts | 64° |
| 2026-04-24 12:31 | 40.90602 | 29.31859 | 321 ft | 15 kts | 66° |
| 2026-04-24 12:32 | 40.90561 | 29.31952 | 321 ft | 13 kts | 153° |
| 2026-04-24 12:32 | 40.90488 | 29.32008 | 319 ft | 12 kts | 132° |
| 2026-04-24 12:32 | 40.90498 | 29.32099 | 320 ft | 10 kts | 64° |
| 2026-04-24 12:32 | 40.90531 | 29.32189 | 320 ft | 14 kts | 64° |
| 2026-04-24 12:33 | 40.90575 | 29.32309 | 320 ft | 13 kts | 64° |
| 2026-04-24 12:33 | 40.90598 | 29.32401 | 320 ft | 8 kts | 104° |
| 2026-04-24 12:33 | 40.90551 | 29.32441 | 319 ft | 8 kts | 154° |
| 2026-04-24 12:33 | 40.90516 | 29.32464 | 318 ft | 0 kts | 154° |
| 2026-04-24 12:35 | 40.90506 | 29.32470 | 316 ft | 7 kts | 153° |
| 2026-04-24 12:35 | 40.90440 | 29.32501 | 315 ft | 10 kts | 194° |
| 2026-04-24 12:35 | 40.90422 | 29.32465 | 315 ft | 0 kts | 244° |
| 2026-04-24 12:36 | 40.90420 | 29.32459 | 315 ft | 10 kts | 244° |
| 2026-04-24 12:36 | 40.90263 | 29.32034 | 318 ft | 88 kts | 244° |
| 2026-04-24 12:36 | 40.89903 | 29.31055 | 320 ft | 146 kts | 244° |
| 2026-04-24 12:36 | 40.89416 | 29.29732 | 742 ft | 161 kts | 243° |
| 2026-04-24 12:37 | 40.88925 | 29.28400 | 1507 ft | 165 kts | 243° |
| 2026-04-24 12:37 | 40.88400 | 29.26945 | 1989 ft | 185 kts | 244° |
| 2026-04-24 12:37 | 40.87824 | 29.25320 | 2534 ft | 205 kts | 245° |
| 2026-04-24 12:37 | 40.87205 | 29.23580 | 3421 ft | 212 kts | 245° |
| 2026-04-24 12:38 | 40.86549 | 29.21784 | 4187 ft | 223 kts | 245° |
| 2026-04-24 12:38 | 40.85843 | 29.19837 | 4679 ft | 247 kts | 245° |
| 2026-04-24 12:38 | 40.85096 | 29.17727 | 5461 ft | 255 kts | 246° |
| 2026-04-24 12:39 | 40.82723 | 29.11149 | 7972 ft | 279 kts | 245° |
| 2026-04-24 12:39 | 40.81891 | 29.08854 | 8825 ft | 283 kts | 245° |
| 2026-04-24 12:39 | 40.81035 | 29.06497 | 9728 ft | 287 kts | 245° |
| 2026-04-24 12:40 | 40.80160 | 29.04096 | 10452 ft | 298 kts | 245° |
| 2026-04-24 12:40 | 40.79224 | 29.01533 | 10782 ft | 321 kts | 245° |
| 2026-04-24 12:40 | 40.78240 | 28.98847 | 11539 ft | 326 kts | 245° |
| 2026-04-24 12:40 | 40.77238 | 28.96135 | 12337 ft | 331 kts | 245° |
| 2026-04-24 12:41 | 40.76216 | 28.93379 | 13073 ft | 336 kts | 245° |
| 2026-04-24 12:41 | 40.75198 | 28.90597 | 13911 ft | 338 kts | 245° |
| 2026-04-24 12:41 | 40.74182 | 28.87794 | 14662 ft | 341 kts | 245° |
| 2026-04-24 12:41 | 40.73143 | 28.84957 | 15317 ft | 346 kts | 245° |
| 2026-04-24 12:42 | 40.72085 | 28.82084 | 16006 ft | 349 kts | 245° |
| 2026-04-24 12:42 | 40.71011 | 28.79187 | 16667 ft | 354 kts | 245° |
| 2026-04-24 12:42 | 40.69925 | 28.76265 | 17330 ft | 357 kts | 245° |
| 2026-04-24 12:42 | 40.68828 | 28.73304 | 17960 ft | 361 kts | 245° |
| 2026-04-24 12:43 | 40.67729 | 28.70309 | 18575 ft | 365 kts | 247° |
| 2026-04-24 12:43 | 40.66937 | 28.67135 | 19161 ft | 367 kts | 260° |
| 2026-04-24 12:43 | 40.66703 | 28.63792 | 19752 ft | 368 kts | 272° |
| 2026-04-24 12:43 | 40.66988 | 28.60447 | 20370 ft | 369 kts | 283° |
| 2026-04-24 12:44 | 40.67611 | 28.57206 | 20955 ft | 371 kts | 285° |
| 2026-04-24 12:44 | 40.68198 | 28.53878 | 21480 ft | 375 kts | 283° |
| 2026-04-24 12:44 | 40.68808 | 28.50513 | 22016 ft | 378 kts | 289° |
| 2026-04-24 12:44 | 40.69836 | 28.47327 | 22530 ft | 380 kts | 300° |
| 2026-04-24 12:45 | 40.71377 | 28.44496 | 23041 ft | 382 kts | 313° |
| 2026-04-24 12:45 | 40.73377 | 28.42173 | 23532 ft | 384 kts | 325° |
| 2026-04-24 12:45 | 40.75682 | 28.40369 | 24030 ft | 386 kts | 328° |
| 2026-04-24 12:45 | 40.77748 | 28.38111 | 24479 ft | 389 kts | 310° |
| 2026-04-24 12:46 | 40.79221 | 28.35107 | 24928 ft | 393 kts | 296° |
| 2026-04-24 12:46 | 40.80127 | 28.31694 | 25365 ft | 397 kts | 284° |
| 2026-04-24 12:46 | 40.80475 | 28.28059 | 25815 ft | 402 kts | 272° |
| 2026-04-24 12:46 | 40.80412 | 28.24350 | 26251 ft | 404 kts | 270° |
| 2026-04-24 12:47 | 40.80327 | 28.20630 | 26668 ft | 407 kts | 270° |
| 2026-04-24 12:47 | 40.80235 | 28.16940 | 27071 ft | 409 kts | 270° |
| 2026-04-24 12:47 | 40.80134 | 28.13169 | 27460 ft | 412 kts | 270° |
| 2026-04-24 12:47 | 40.80029 | 28.09374 | 27844 ft | 414 kts | 269° |
| 2026-04-24 12:48 | 40.79922 | 28.05567 | 28219 ft | 417 kts | 270° |
| 2026-04-24 12:48 | 40.79815 | 28.01734 | 28581 ft | 419 kts | 269° |
| 2026-04-24 12:48 | 40.79705 | 27.97878 | 28948 ft | 421 kts | 270° |
| 2026-04-24 12:48 | 40.79593 | 27.94000 | 29259 ft | 425 kts | 270° |
| 2026-04-24 12:49 | 40.79475 | 27.90079 | 29550 ft | 429 kts | 270° |
| 2026-04-24 12:49 | 40.79373 | 27.86134 | 29876 ft | 431 kts | 271° |
| 2026-04-24 12:49 | 40.79352 | 27.82162 | 30203 ft | 433 kts | 272° |
| 2026-04-24 12:49 | 40.79395 | 27.78179 | 30522 ft | 435 kts | 273° |
| 2026-04-24 12:50 | 40.79472 | 27.74170 | 30832 ft | 437 kts | 274° |
| 2026-04-24 12:50 | 40.79554 | 27.70143 | 31134 ft | 439 kts | 274° |
| 2026-04-24 12:50 | 40.79626 | 27.66155 | 31431 ft | 441 kts | 273° |
| 2026-04-24 12:50 | 40.79716 | 27.62102 | 31748 ft | 441 kts | 277° |
| 2026-04-24 12:51 | 40.80163 | 27.58114 | 32151 ft | 438 kts | 285° |
| 2026-04-24 12:51 | 40.80948 | 27.54248 | 32555 ft | 435 kts | 288° |
| 2026-04-24 12:51 | 40.81755 | 27.50397 | 32956 ft | 434 kts | 287° |
| 2026-04-24 12:51 | 40.82555 | 27.46558 | 33347 ft | 433 kts | 287° |
| 2026-04-24 12:52 | 40.83351 | 27.42736 | 33723 ft | 432 kts | 288° |
| 2026-04-24 12:52 | 40.84149 | 27.38909 | 34107 ft | 431 kts | 287° |
| 2026-04-24 12:52 | 40.84943 | 27.35083 | 34492 ft | 430 kts | 287° |
| 2026-04-24 12:52 | 40.85737 | 27.31264 | 34835 ft | 430 kts | 287° |
| 2026-04-24 12:53 | 40.86525 | 27.27459 | 35160 ft | 429 kts | 287° |
| 2026-04-24 12:53 | 40.87311 | 27.23652 | 35464 ft | 429 kts | 287° |
| 2026-04-24 12:53 | 40.88087 | 27.19891 | 35758 ft | 429 kts | 287° |
| 2026-04-24 12:53 | 40.88872 | 27.16086 | 35967 ft | 429 kts | 287° |
| 2026-04-24 12:54 | 40.89650 | 27.12305 | 36006 ft | 424 kts | 287° |
| 2026-04-24 12:54 | 40.91186 | 27.04812 | 36008 ft | 421 kts | 287° |
| 2026-04-24 12:55 | 40.92402 | 26.97247 | 36007 ft | 423 kts | 275° |
| 2026-04-24 12:55 | 40.92137 | 26.89447 | 36007 ft | 426 kts | 268° |
| 2026-04-24 12:56 | 40.91673 | 26.81637 | 36009 ft | 427 kts | 268° |
| 2026-04-24 12:56 | 40.91216 | 26.73818 | 36000 ft | 426 kts | 268° |
| 2026-04-24 12:57 | 40.90759 | 26.66004 | 35993 ft | 426 kts | 268° |
| 2026-04-24 12:57 | 40.90290 | 26.58180 | 35990 ft | 427 kts | 267° |
| 2026-04-24 12:58 | 40.89813 | 26.50355 | 35990 ft | 427 kts | 267° |
| 2026-04-24 12:58 | 40.89327 | 26.42529 | 35989 ft | 427 kts | 267° |
| 2026-04-24 12:59 | 40.88835 | 26.34680 | 35988 ft | 428 kts | 267° |
| 2026-04-24 12:59 | 40.88344 | 26.26892 | 35992 ft | 428 kts | 267° |
| 2026-04-24 13:00 | 40.87752 | 26.19050 | 36003 ft | 429 kts | 265° |
| 2026-04-24 13:00 | 40.86960 | 26.11220 | 36003 ft | 430 kts | 264° |
| 2026-04-24 13:01 | 40.86276 | 26.04720 | 36003 ft | 430 kts | 264° |
| 2026-04-24 13:01 | 40.85491 | 25.96892 | 36002 ft | 429 kts | 264° |
| 2026-04-24 13:02 | 40.84493 | 25.87749 | 35986 ft | 431 kts | 263° |
| 2026-04-24 13:02 | 40.83683 | 25.81255 | 35981 ft | 431 kts | 262° |
| 2026-04-24 13:03 | 40.82696 | 25.73427 | 35979 ft | 432 kts | 263° |
| 2026-04-24 13:03 | 40.81734 | 25.65592 | 35983 ft | 432 kts | 263° |
| 2026-04-24 13:04 | 40.80778 | 25.57802 | 35986 ft | 433 kts | 263° |
| 2026-04-24 13:04 | 40.79810 | 25.49943 | 35987 ft | 434 kts | 263° |
| 2026-04-24 13:05 | 40.78832 | 25.42086 | 35986 ft | 434 kts | 263° |
| 2026-04-24 13:05 | 40.77843 | 25.34229 | 35985 ft | 434 kts | 262° |
| 2026-04-24 13:06 | 40.76846 | 25.26382 | 35982 ft | 433 kts | 262° |
| 2026-04-24 13:06 | 40.75849 | 25.18523 | 35979 ft | 434 kts | 262° |
| 2026-04-24 13:07 | 40.74847 | 25.10717 | 35975 ft | 435 kts | 262° |
| 2026-04-24 13:07 | 40.73837 | 25.02843 | 35974 ft | 436 kts | 262° |
| 2026-04-24 13:08 | 40.72821 | 24.94946 | 35974 ft | 437 kts | 262° |
| 2026-04-24 13:08 | 40.71796 | 24.87030 | 35973 ft | 437 kts | 262° |
| 2026-04-24 13:09 | 40.70244 | 24.75225 | 35973 ft | 437 kts | 262° |
| 2026-04-24 13:09 | 40.69203 | 24.67320 | 35970 ft | 437 kts | 262° |
| 2026-04-24 13:10 | 40.68162 | 24.59427 | 35967 ft | 437 kts | 262° |
| 2026-04-24 13:10 | 40.67109 | 24.51530 | 35966 ft | 438 kts | 262° |
| 2026-04-24 13:11 | 40.66051 | 24.43631 | 35965 ft | 438 kts | 262° |
| 2026-04-24 13:11 | 40.64984 | 24.35716 | 35969 ft | 439 kts | 262° |
| 2026-04-24 13:12 | 40.63922 | 24.27850 | 35972 ft | 439 kts | 262° |
| 2026-04-24 13:12 | 40.62842 | 24.19932 | 35975 ft | 439 kts | 262° |
| 2026-04-24 13:13 | 40.61766 | 24.12026 | 35977 ft | 439 kts | 262° |
| 2026-04-24 13:13 | 40.60733 | 24.04120 | 35974 ft | 437 kts | 266° |
| 2026-04-24 13:14 | 40.60688 | 24.00137 | 35974 ft | 434 kts | 277° |
| 2026-04-24 13:14 | 40.61176 | 23.96241 | 35973 ft | 431 kts | 287° |
| 2026-04-24 13:14 | 40.63639 | 23.89159 | 35968 ft | 425 kts | 307° |
| 2026-04-24 13:15 | 40.66998 | 23.82751 | 35968 ft | 426 kts | 307° |
| 2026-04-24 13:15 | 40.70342 | 23.76308 | 35968 ft | 426 kts | 307° |
| 2026-04-24 13:16 | 40.73688 | 23.69849 | 35969 ft | 427 kts | 307° |
| 2026-04-24 13:16 | 40.77033 | 23.63374 | 35970 ft | 427 kts | 307° |
| 2026-04-24 13:17 | 40.80387 | 23.56870 | 35973 ft | 428 kts | 307° |
| 2026-04-24 13:17 | 40.83717 | 23.50414 | 35974 ft | 428 kts | 307° |
| 2026-04-24 13:18 | 40.87068 | 23.43894 | 35935 ft | 431 kts | 307° |
| 2026-04-24 13:18 | 40.88756 | 23.40606 | 35501 ft | 432 kts | 307° |
| 2026-04-24 13:18 | 40.90434 | 23.37328 | 34970 ft | 429 kts | 308° |
| 2026-04-24 13:19 | 40.92105 | 23.34064 | 34435 ft | 427 kts | 308° |
| 2026-04-24 13:19 | 40.93767 | 23.30810 | 33912 ft | 425 kts | 308° |
| 2026-04-24 13:19 | 40.95418 | 23.27571 | 33390 ft | 423 kts | 308° |
| 2026-04-24 13:19 | 40.97056 | 23.24356 | 32875 ft | 420 kts | 308° |
| 2026-04-24 13:20 | 40.98686 | 23.21162 | 32384 ft | 418 kts | 309° |
| 2026-04-24 13:20 | 41.00308 | 23.17989 | 31892 ft | 415 kts | 309° |
| 2026-04-24 13:20 | 41.01919 | 23.14834 | 31412 ft | 411 kts | 309° |
| 2026-04-24 13:20 | 41.03513 | 23.11704 | 30932 ft | 408 kts | 309° |
| 2026-04-24 13:21 | 41.05069 | 23.08643 | 30481 ft | 405 kts | 310° |
| 2026-04-24 13:21 | 41.06629 | 23.05560 | 30025 ft | 401 kts | 310° |
| 2026-04-24 13:21 | 41.08176 | 23.02502 | 29571 ft | 397 kts | 310° |
| 2026-04-24 13:21 | 41.09884 | 22.99704 | 29144 ft | 385 kts | 321° |
| 2026-04-24 13:22 | 41.11880 | 22.97430 | 28726 ft | 373 kts | 330° |
| 2026-04-24 13:22 | 41.14027 | 22.95554 | 28323 ft | 367 kts | 332° |
| 2026-04-24 13:22 | 41.16155 | 22.93719 | 27932 ft | 363 kts | 332° |
| 2026-04-24 13:22 | 41.18261 | 22.91901 | 27517 ft | 359 kts | 332° |
| 2026-04-24 13:23 | 41.20344 | 22.90102 | 27100 ft | 355 kts | 332° |
| 2026-04-24 13:23 | 41.22410 | 22.88312 | 26681 ft | 353 kts | 332° |
| 2026-04-24 13:23 | 41.24456 | 22.86533 | 26271 ft | 351 kts | 332° |
| 2026-04-24 13:23 | 41.26494 | 22.84759 | 25847 ft | 348 kts | 331° |
| 2026-04-24 13:24 | 41.28518 | 22.82996 | 25409 ft | 346 kts | 330° |
| 2026-04-24 13:24 | 41.30373 | 22.80953 | 24970 ft | 349 kts | 317° |
| 2026-04-24 13:24 | 41.31799 | 22.78361 | 24486 ft | 355 kts | 302° |
| 2026-04-24 13:24 | 41.32718 | 22.75296 | 24008 ft | 359 kts | 287° |
| 2026-04-24 13:25 | 41.33039 | 22.71987 | 23516 ft | 362 kts | 274° |
| 2026-04-24 13:25 | 41.33073 | 22.68638 | 23032 ft | 362 kts | 274° |
| 2026-04-24 13:25 | 41.33106 | 22.65288 | 22552 ft | 362 kts | 274° |
| 2026-04-24 13:25 | 41.33139 | 22.61938 | 22074 ft | 362 kts | 274° |
| 2026-04-24 13:26 | 41.33172 | 22.58592 | 21600 ft | 362 kts | 274° |
| 2026-04-24 13:26 | 41.33204 | 22.55244 | 21124 ft | 361 kts | 274° |
| 2026-04-24 13:26 | 41.33237 | 22.51907 | 20657 ft | 361 kts | 274° |
| 2026-04-24 13:26 | 41.33269 | 22.48572 | 20189 ft | 360 kts | 273° |
| 2026-04-24 13:27 | 41.33299 | 22.45243 | 19723 ft | 359 kts | 273° |
| 2026-04-24 13:27 | 41.33330 | 22.41924 | 19258 ft | 359 kts | 273° |
| 2026-04-24 13:27 | 41.33361 | 22.38606 | 18796 ft | 358 kts | 273° |
| 2026-04-24 13:27 | 41.33391 | 22.35340 | 18340 ft | 357 kts | 273° |
| 2026-04-24 13:28 | 41.33420 | 22.32041 | 17885 ft | 356 kts | 273° |
| 2026-04-24 13:28 | 41.33446 | 22.28754 | 17433 ft | 355 kts | 273° |
| 2026-04-24 13:28 | 41.33471 | 22.25476 | 16983 ft | 354 kts | 272° |
| 2026-04-24 13:28 | 41.33495 | 22.22215 | 16575 ft | 351 kts | 272° |
| 2026-04-24 13:29 | 41.33518 | 22.18969 | 16223 ft | 348 kts | 272° |
| 2026-04-24 13:29 | 41.33539 | 22.15745 | 15797 ft | 346 kts | 272° |
| 2026-04-24 13:29 | 41.33558 | 22.12581 | 15269 ft | 337 kts | 272° |
| 2026-04-24 13:29 | 41.33577 | 22.09518 | 14856 ft | 325 kts | 272° |
| 2026-04-24 13:30 | 41.33594 | 22.06563 | 14446 ft | 314 kts | 273° |
| 2026-04-24 13:30 | 41.33609 | 22.03709 | 14065 ft | 305 kts | 272° |
| 2026-04-24 13:30 | 41.33623 | 22.00878 | 13684 ft | 307 kts | 272° |
| 2026-04-24 13:30 | 41.33639 | 21.98032 | 13312 ft | 308 kts | 273° |
| 2026-04-24 13:31 | 41.33653 | 21.95172 | 12908 ft | 310 kts | 273° |
| 2026-04-24 13:31 | 41.33667 | 21.92302 | 12525 ft | 311 kts | 273° |
| 2026-04-24 13:31 | 41.33903 | 21.89464 | 12154 ft | 307 kts | 291° |
| 2026-04-24 13:31 | 41.34975 | 21.87071 | 11792 ft | 300 kts | 317° |
| 2026-04-24 13:32 | 41.36683 | 21.85566 | 11436 ft | 295 kts | 340° |
| 2026-04-24 13:32 | 41.38615 | 21.84658 | 11080 ft | 293 kts | 342° |
| 2026-04-24 13:32 | 41.40541 | 21.83778 | 10713 ft | 292 kts | 342° |
| 2026-04-24 13:32 | 41.42434 | 21.82916 | 10351 ft | 291 kts | 342° |
| 2026-04-24 13:33 | 41.44348 | 21.82041 | 9989 ft | 290 kts | 342° |
| 2026-04-24 13:33 | 41.46233 | 21.81176 | 9780 ft | 283 kts | 341° |
| 2026-04-24 13:33 | 41.48086 | 21.80323 | 9265 ft | 279 kts | 341° |
| 2026-04-24 13:33 | 41.49880 | 21.79495 | 8881 ft | 267 kts | 341° |
| 2026-04-24 13:34 | 41.51615 | 21.78697 | 8515 ft | 264 kts | 341° |
| 2026-04-24 13:34 | 41.53355 | 21.77896 | 8137 ft | 265 kts | 341° |
| 2026-04-24 13:34 | 41.55106 | 21.77086 | 7754 ft | 266 kts | 341° |
| 2026-04-24 13:34 | 41.56853 | 21.76275 | 7375 ft | 265 kts | 341° |
| 2026-04-24 13:35 | 41.58596 | 21.75465 | 6980 ft | 265 kts | 341° |
| 2026-04-24 13:35 | 41.60338 | 21.74658 | 6557 ft | 266 kts | 341° |
| 2026-04-24 13:35 | 41.62091 | 21.73846 | 6134 ft | 268 kts | 341° |
| 2026-04-24 13:35 | 41.63862 | 21.73028 | 5678 ft | 269 kts | 341° |
| 2026-04-24 13:36 | 41.65650 | 21.72318 | 5278 ft | 268 kts | 347° |
| 2026-04-24 13:36 | 41.67491 | 21.71959 | 4976 ft | 262 kts | 351° |
| 2026-04-24 13:36 | 41.69229 | 21.71490 | 4896 ft | 248 kts | 346° |
| 2026-04-24 13:36 | 41.70858 | 21.70927 | 4798 ft | 235 kts | 345° |
| 2026-04-24 13:37 | 41.72398 | 21.70386 | 4702 ft | 223 kts | 346° |
| 2026-04-24 13:37 | 41.73852 | 21.69882 | 4613 ft | 214 kts | 346° |
| 2026-04-24 13:37 | 41.75276 | 21.69389 | 4515 ft | 209 kts | 346° |
| 2026-04-24 13:37 | 41.76662 | 21.68910 | 4420 ft | 203 kts | 346° |
| 2026-04-24 13:38 | 41.78017 | 21.68442 | 4337 ft | 198 kts | 346° |
| 2026-04-24 13:38 | 41.79350 | 21.67981 | 4191 ft | 199 kts | 346° |
| 2026-04-24 13:38 | 41.80697 | 21.67514 | 3945 ft | 200 kts | 346° |
| 2026-04-24 13:38 | 41.82034 | 21.67052 | 3682 ft | 198 kts | 346° |
| 2026-04-24 13:39 | 41.83351 | 21.66594 | 3415 ft | 191 kts | 346° |
| 2026-04-24 13:39 | 41.84592 | 21.66163 | 3125 ft | 177 kts | 347° |
| 2026-04-24 13:39 | 41.85736 | 21.65767 | 2877 ft | 162 kts | 346° |
| 2026-04-24 13:39 | 41.86778 | 21.65405 | 2643 ft | 149 kts | 346° |
| 2026-04-24 13:40 | 41.87763 | 21.65064 | 2403 ft | 143 kts | 345° |
| 2026-04-24 13:40 | 41.88709 | 21.64735 | 2225 ft | 138 kts | 346° |
| 2026-04-24 13:40 | 41.89633 | 21.64414 | 2076 ft | 136 kts | 345° |
| 2026-04-24 13:40 | 41.90549 | 21.64095 | 1894 ft | 136 kts | 347° |
| 2026-04-24 13:41 | 41.91461 | 21.63770 | 1629 ft | 135 kts | 347° |
| 2026-04-24 13:41 | 41.92369 | 21.63453 | 1409 ft | 136 kts | 347° |
| 2026-04-24 13:41 | 41.93282 | 21.63141 | 1191 ft | 135 kts | 345° |
| 2026-04-24 13:41 | 41.94190 | 21.62823 | 990 ft | 134 kts | 346° |
| 2026-04-24 13:42 | 41.95096 | 21.62513 | 816 ft | 134 kts | 346° |
| 2026-04-24 13:42 | 41.95934 | 21.62221 | 782 ft | 104 kts | 346° |
| 2026-04-24 13:42 | 41.96464 | 21.62039 | 786 ft | 53 kts | 346° |
| 2026-04-24 13:42 | 41.96792 | 21.61923 | 788 ft | 44 kts | 345° |
| 2026-04-24 13:43 | 41.96969 | 21.61868 | 788 ft | 15 kts | 1° |
| 2026-04-24 13:43 | 41.96993 | 21.61961 | 788 ft | 9 kts | 123° |
| 2026-04-24 13:43 | 41.96951 | 21.62035 | 788 ft | 13 kts | 127° |
| 2026-04-24 13:43 | 41.96894 | 21.62130 | 788 ft | 13 kts | 131° |
| 2026-04-24 13:44 | 41.96821 | 21.62179 | 787 ft | 11 kts | 164° |
| 2026-04-24 13:44 | 41.96747 | 21.62206 | 787 ft | 11 kts | 165° |
| 2026-04-24 13:44 | 41.96672 | 21.62232 | 786 ft | 13 kts | 165° |
| 2026-04-24 13:44 | 41.96570 | 21.62268 | 786 ft | 16 kts | 165° |
| 2026-04-24 13:45 | 41.96460 | 21.62308 | 785 ft | 17 kts | 165° |
| 2026-04-24 13:45 | 41.96333 | 21.62353 | 785 ft | 20 kts | 165° |
| 2026-04-24 13:45 | 41.96188 | 21.62403 | 784 ft | 23 kts | 166° |
| 2026-04-24 13:45 | 41.96050 | 21.62451 | 783 ft | 11 kts | 165° |
| 2026-04-24 13:46 | 41.96014 | 21.62497 | 783 ft | 7 kts | 92° |
| 2026-04-24 13:46 | 41.96039 | 21.62536 | 783 ft | 5 kts | 1° |
| 2026-04-24 13:46 | 41.96053 | 21.62532 | 783 ft | 4 kts | 349° |
| 2026-04-24 13:46 | 41.96090 | 21.62529 | 783 ft | 3 kts | 42° |
| 2026-04-24 13:47 | 41.96100 | 21.62558 | 783 ft | 3 kts | 67° |
| 2026-04-24 13:47 | 41.96104 | 21.62576 | 783 ft | 1 kts | 73° |
| 2026-04-24 13:47 | 41.96105 | 21.62580 | 783 ft | 0 kts | 73° |
| 2026-04-24 13:47 | 41.96106 | 21.62584 | 783 ft | 0 kts | 73° |